createdAt,value
2023-08-25T00:02:06.020Z,10.65
2023-08-25T00:04:32.888Z,10.35
2023-08-25T00:06:59.704Z,9.57
2023-08-25T00:09:26.482Z,10.18
2023-08-25T00:11:53.263Z,11.15
2023-08-25T00:14:20.016Z,11.23
2023-08-25T00:16:46.995Z,12.10
2023-08-25T00:19:15.355Z,10.93
2023-08-25T00:21:43.019Z,10.73
2023-08-25T00:24:09.761Z,10.60
2023-08-25T00:26:38.325Z,10.65
2023-08-25T00:29:05.592Z,10.60
2023-08-25T00:31:32.759Z,10.15
2023-08-25T00:33:59.528Z,10.18
2023-08-25T00:36:26.776Z,11.02
2023-08-25T00:38:53.905Z,11.50
2023-08-25T00:41:20.738Z,12.82
2023-08-25T00:43:47.915Z,13.00
2023-08-25T00:46:15.239Z,14.73
2023-08-25T00:48:42.588Z,14.63
2023-08-25T00:51:12.711Z,16.92
2023-08-25T00:56:07.029Z,16.40
2023-08-25T00:58:33.839Z,15.55
2023-08-25T01:01:04.682Z,15.43
2023-08-25T01:03:31.621Z,16.77
2023-08-25T01:05:59.180Z,16.95
2023-08-25T01:08:26.059Z,17.67
2023-08-25T01:11:11.066Z,16.90
2023-08-25T01:14:07.545Z,15.25
2023-08-25T01:16:39.109Z,14.98
2023-08-25T01:19:11.837Z,15.95
2023-08-25T01:21:42.565Z,15.25
2023-08-25T01:24:22.912Z,15.55
2023-08-25T01:26:50.721Z,15.57
2023-08-25T01:29:17.481Z,14.75
2023-08-25T01:31:44.226Z,14.57
2023-08-25T01:34:10.994Z,14.75
2023-08-25T01:37:04.901Z,18.20
2023-08-25T01:39:34.750Z,19.27
2023-08-25T01:42:04.614Z,21.95
2023-08-25T01:44:32.375Z,19.60
2023-08-25T01:47:07.689Z,20.67
2023-08-25T01:49:36.444Z,21.27
2023-08-25T01:52:03.443Z,23.25
2023-08-25T01:54:30.954Z,22.40
2023-08-25T01:56:57.706Z,23.80
2023-08-25T01:59:24.482Z,23.20
2023-08-25T02:01:51.316Z,22.77
2023-08-25T02:04:18.093Z,21.98
2023-08-25T02:06:44.934Z,21.92
2023-08-25T02:09:12.050Z,22.90
2023-08-25T02:11:38.824Z,22.83
2023-08-25T02:14:05.596Z,22.48
2023-08-25T02:16:32.855Z,22.08
2023-08-25T02:18:59.766Z,19.90
2023-08-25T02:21:26.541Z,22.08
2023-08-25T02:23:53.351Z,21.38
2023-08-25T02:26:20.130Z,21.30
2023-08-25T02:28:47.004Z,21.15
2023-08-25T02:31:13.808Z,20.77
2023-08-25T02:33:40.642Z,20.17
2023-08-25T02:36:07.439Z,17.52
2023-08-25T02:38:34.178Z,20.67
2023-08-25T02:41:00.919Z,21.70
2023-08-25T02:43:27.683Z,22.08
2023-08-25T02:45:54.458Z,22.80
2023-08-25T02:48:21.189Z,20.88
2023-08-25T02:50:47.958Z,19.88
2023-08-25T02:53:14.708Z,20.35
2023-08-25T02:55:41.450Z,20.45
2023-08-25T02:58:08.246Z,18.52
2023-08-25T03:00:35.011Z,18.27
2023-08-25T03:03:02.018Z,18.23
2023-08-25T03:05:28.849Z,17.60
2023-08-25T03:07:55.936Z,18.80
2023-08-25T03:10:23.342Z,20.48
2023-08-25T03:12:50.288Z,19.55
2023-08-25T03:15:17.215Z,18.58
2023-08-25T03:17:44.118Z,19.67
2023-08-25T03:20:11.281Z,17.48
2023-08-25T03:22:38.083Z,18.85
2023-08-25T03:25:05.308Z,18.55
2023-08-25T03:27:35.730Z,18.20
2023-08-25T03:30:03.012Z,17.95
2023-08-25T03:32:29.874Z,17.15
2023-08-25T03:34:56.694Z,19.27
2023-08-25T03:37:23.449Z,19.77
2023-08-25T03:39:50.185Z,21.08
2023-08-25T03:42:17.245Z,20.38
2023-08-25T03:44:44.995Z,21.30
2023-08-25T03:47:11.739Z,22.67
2023-08-25T03:49:38.471Z,24.10
2023-08-25T03:52:06.555Z,22.90
2023-08-25T03:54:33.539Z,23.40
2023-08-25T03:57:00.312Z,21.45
2023-08-25T03:59:27.121Z,21.27
2023-08-25T04:01:54.165Z,21.67
2023-08-25T04:04:20.955Z,21.65
2023-08-25T04:06:47.656Z,20.70
2023-08-25T04:09:14.548Z,21.65
2023-08-25T04:11:41.325Z,22.17
2023-08-25T04:14:08.109Z,21.92
2023-08-25T04:16:34.889Z,21.63
2023-08-25T04:19:03.246Z,22.23
2023-08-25T04:21:30.380Z,21.95
2023-08-25T04:23:57.147Z,21.08
2023-08-25T04:26:23.921Z,20.45
2023-08-25T04:28:50.744Z,19.05
2023-08-25T04:31:17.520Z,23.92
2023-08-25T04:33:44.661Z,22.58
2023-08-25T04:36:13.585Z,20.85
2023-08-25T04:38:40.475Z,20.83
2023-08-25T04:41:07.236Z,23.80
2023-08-25T04:43:34.136Z,22.58
2023-08-25T04:46:02.281Z,22.50
2023-08-25T04:48:29.131Z,22.33
2023-08-25T04:50:57.414Z,22.00
2023-08-25T04:53:24.257Z,23.65
2023-08-25T04:55:51.973Z,23.75
2023-08-25T04:58:18.774Z,23.52
2023-08-25T05:00:48.387Z,23.27
2023-08-25T05:03:15.298Z,24.20
2023-08-25T05:05:42.128Z,22.13
2023-08-25T05:08:08.960Z,23.80
2023-08-25T05:10:35.910Z,22.25
2023-08-25T05:13:02.733Z,22.85
2023-08-25T05:15:29.535Z,23.13
2023-08-25T05:17:56.615Z,23.10
2023-08-25T05:20:24.034Z,24.05
2023-08-25T05:22:52.136Z,23.00
2023-08-25T05:25:21.647Z,22.15
2023-08-25T05:27:48.997Z,25.20
2023-08-25T05:30:17.680Z,25.17
2023-08-25T05:32:44.652Z,26.98
2023-08-25T05:35:12.249Z,25.48
2023-08-25T05:37:39.137Z,25.40
2023-08-25T05:40:08.165Z,25.27
2023-08-25T05:42:36.866Z,24.48
2023-08-25T05:45:04.694Z,25.35
2023-08-25T05:47:31.619Z,25.05
2023-08-25T05:49:58.761Z,25.42
2023-08-25T05:52:25.869Z,24.75
2023-08-25T05:54:52.672Z,26.05
2023-08-25T05:57:19.547Z,25.10
2023-08-25T05:59:46.319Z,24.50
2023-08-25T06:02:13.150Z,25.20
2023-08-25T06:04:39.918Z,25.52
2023-08-25T06:07:06.684Z,25.80
2023-08-25T06:09:33.506Z,25.90
2023-08-25T06:12:00.973Z,25.17
2023-08-25T06:14:27.882Z,24.75
2023-08-25T06:17:00.409Z,24.45
2023-08-25T06:19:27.187Z,25.25
2023-08-25T06:21:53.972Z,23.88
2023-08-25T06:24:20.690Z,25.95
2023-08-25T06:26:48.661Z,25.30
2023-08-25T06:29:15.399Z,27.65
2023-08-25T06:31:42.418Z,27.85
2023-08-25T06:34:09.474Z,28.92
2023-08-25T06:36:36.318Z,25.67
2023-08-25T06:39:04.928Z,27.75
2023-08-25T06:41:31.936Z,27.33
2023-08-25T06:44:00.331Z,27.38
2023-08-25T06:46:27.365Z,27.27
2023-08-25T06:48:54.249Z,26.23
2023-08-25T06:51:21.067Z,26.20
2023-08-25T06:53:47.898Z,26.35
2023-08-25T06:56:14.812Z,25.90
2023-08-25T06:58:41.642Z,28.98
2023-08-25T07:01:08.659Z,26.92
2023-08-25T07:03:36.209Z,28.25
2023-08-25T07:06:04.276Z,28.58
2023-08-25T07:08:31.973Z,28.17
2023-08-25T07:10:58.795Z,28.42
2023-08-25T07:13:25.580Z,27.65
2023-08-25T07:15:52.537Z,28.80
2023-08-25T07:18:19.585Z,27.80
2023-08-25T07:20:46.406Z,27.52
2023-08-25T07:23:13.169Z,28.77
2023-08-25T07:25:44.577Z,29.50
2023-08-25T07:28:12.142Z,30.20
2023-08-25T07:30:39.388Z,31.60
2023-08-25T07:33:07.477Z,28.58
2023-08-25T07:35:38.103Z,28.75
2023-08-25T07:38:05.526Z,31.30
2023-08-25T07:40:32.881Z,29.40
2023-08-25T07:43:02.463Z,29.88
2023-08-25T07:45:30.688Z,29.05
2023-08-25T07:48:00.713Z,29.23
2023-08-25T07:55:25.599Z,29.55
2023-08-25T07:57:54.133Z,28.10
2023-08-25T08:00:21.479Z,30.27
2023-08-25T08:02:49.570Z,29.52
2023-08-25T08:05:18.381Z,29.77
2023-08-25T08:07:46.645Z,31.00
2023-08-25T08:10:15.809Z,29.63
2023-08-25T08:12:44.380Z,30.70
2023-08-25T08:15:12.309Z,30.92
2023-08-25T08:17:40.609Z,31.02
2023-08-25T08:20:13.099Z,31.67
2023-08-25T08:22:41.825Z,31.92
2023-08-25T08:25:11.517Z,32.25
2023-08-25T08:27:40.640Z,32.42
2023-08-25T08:30:08.443Z,31.13
2023-08-25T08:32:39.699Z,31.65
2023-08-25T08:35:10.265Z,32.20
2023-08-25T08:37:38.200Z,34.30
2023-08-25T08:40:11.778Z,30.35
2023-08-25T08:42:40.640Z,32.08
2023-08-25T08:45:10.085Z,31.17
2023-08-25T08:47:38.207Z,29.50
2023-08-25T08:50:10.045Z,31.17
2023-08-25T08:52:37.208Z,30.60
2023-08-25T08:55:08.627Z,29.30
2023-08-25T08:57:35.745Z,30.42
2023-08-25T09:00:09.142Z,30.17
2023-08-25T09:02:36.917Z,29.77
2023-08-25T09:05:04.333Z,30.08
2023-08-25T09:07:33.354Z,32.65
2023-08-25T09:10:01.388Z,32.72
2023-08-25T09:12:28.287Z,31.45
2023-08-25T09:14:55.053Z,29.58
2023-08-25T09:17:23.091Z,29.42
2023-08-25T09:19:50.155Z,31.58
2023-08-25T09:22:18.080Z,32.33
2023-08-25T09:24:45.127Z,31.83
2023-08-25T09:27:25.340Z,31.02
2023-08-25T09:30:07.995Z,29.48
2023-08-25T09:32:35.791Z,30.15
2023-08-25T09:35:16.643Z,26.83
2023-08-25T09:37:44.377Z,26.88
2023-08-25T09:40:18.736Z,25.38
2023-08-25T09:42:46.275Z,23.50
2023-08-25T09:45:13.598Z,23.27
2023-08-25T09:47:43.005Z,25.60
2023-08-25T09:50:16.506Z,23.15
2023-08-25T09:52:48.105Z,23.67
2023-08-25T09:55:16.188Z,24.75
2023-08-25T09:57:47.533Z,22.80
2023-08-25T10:00:15.433Z,23.35
2023-08-25T10:02:43.432Z,24.38
2023-08-25T10:05:11.491Z,23.33
2023-08-25T10:07:38.780Z,23.25
2023-08-25T10:10:06.126Z,20.75
2023-08-25T10:12:35.814Z,23.30
2023-08-25T10:15:04.557Z,22.23
2023-08-25T10:17:32.140Z,20.27
2023-08-25T10:20:02.350Z,20.60
2023-08-25T10:22:30.545Z,18.92
2023-08-25T10:25:02.634Z,18.88
2023-08-25T10:27:29.871Z,18.38
2023-08-25T10:29:57.739Z,17.27
2023-08-25T10:32:24.542Z,16.08
2023-08-25T10:34:54.498Z,14.55
2023-08-25T10:37:26.751Z,13.88
2023-08-25T10:40:07.860Z,13.30
2023-08-25T10:42:35.385Z,11.63
2023-08-25T10:45:08.889Z,9.40
2023-08-25T10:47:46.003Z,8.57
2023-08-25T10:50:14.928Z,8.23
2023-08-25T10:52:44.705Z,8.25
2023-08-25T10:55:31.011Z,9.30
2023-08-25T10:58:05.898Z,8.75
2023-08-25T11:00:37.915Z,9.40
2023-08-25T11:03:05.890Z,9.57
2023-08-25T11:05:44.793Z,9.85
2023-08-25T11:08:32.437Z,9.43
2023-08-25T11:11:16.651Z,11.43
2023-08-25T11:13:44.367Z,12.63
2023-08-25T11:16:13.370Z,13.15
2023-08-25T11:18:42.212Z,13.13
2023-08-25T11:21:09.200Z,14.00
2023-08-25T11:23:40.911Z,13.93
2023-08-25T11:26:09.272Z,13.60
2023-08-25T11:28:36.820Z,16.13
2023-08-25T11:31:05.001Z,16.50
2023-08-25T11:33:33.343Z,17.17
2023-08-25T11:36:04.328Z,17.45
2023-08-25T11:38:34.129Z,17.65
2023-08-25T11:43:34.084Z,17.85
2023-08-25T11:46:01.410Z,18.92
2023-08-25T11:48:28.369Z,18.60
2023-08-25T11:50:55.129Z,18.60
2023-08-25T11:53:22.025Z,19.30
2023-08-25T11:56:07.321Z,18.60
2023-08-25T11:58:36.188Z,18.58
2023-08-25T12:01:08.360Z,19.23
2023-08-25T12:03:36.099Z,18.10
2023-08-25T12:06:06.226Z,16.38
2023-08-25T12:08:34.491Z,16.08
2023-08-25T12:11:02.101Z,17.27
2023-08-25T12:13:30.924Z,17.60
2023-08-25T12:15:58.404Z,18.67
2023-08-25T12:18:36.161Z,18.20
2023-08-25T12:21:07.400Z,18.25
2023-08-25T12:23:36.209Z,18.50
2023-08-25T12:26:08.026Z,17.98
2023-08-25T12:28:35.563Z,17.90
2023-08-25T12:31:03.096Z,18.77
2023-08-25T12:33:30.000Z,18.42
2023-08-25T12:35:59.094Z,17.10
2023-08-25T12:38:26.078Z,18.33
2023-08-25T12:40:52.874Z,17.85
2023-08-25T12:43:20.346Z,17.90
2023-08-25T12:45:49.044Z,19.25
2023-08-25T12:48:16.582Z,19.03
2023-08-25T12:50:43.463Z,19.85
2023-08-25T12:53:10.256Z,22.10
2023-08-25T12:55:37.334Z,21.15
2023-08-25T12:58:04.482Z,21.17
2023-08-25T13:00:31.374Z,21.27
2023-08-25T13:02:58.635Z,22.20
2023-08-25T13:05:26.239Z,22.67
2023-08-25T13:07:53.623Z,24.67
2023-08-25T13:10:20.703Z,25.17
2023-08-25T13:12:47.479Z,23.10
2023-08-25T13:15:15.711Z,26.10
2023-08-25T13:17:43.712Z,26.95
2023-08-25T13:20:11.865Z,27.10
2023-08-25T13:22:38.684Z,27.60
2023-08-25T13:25:05.765Z,27.23
2023-08-25T13:27:35.350Z,26.48
2023-08-25T13:30:03.126Z,27.98
2023-08-25T13:32:30.077Z,29.90
2023-08-25T13:34:56.841Z,30.90
2023-08-25T13:37:23.614Z,31.88
2023-08-25T13:39:50.465Z,28.65
2023-08-25T13:42:17.224Z,25.60
2023-08-25T13:44:44.025Z,27.23
2023-08-25T13:47:12.029Z,27.55
2023-08-25T13:49:39.841Z,30.02
2023-08-25T13:52:06.847Z,28.55
2023-08-25T13:54:34.158Z,29.48
2023-08-25T13:57:01.368Z,29.25
2023-08-25T13:59:28.746Z,28.45
2023-08-25T14:01:55.704Z,31.02
2023-08-25T14:04:22.606Z,29.85
2023-08-25T14:06:49.399Z,30.05
2023-08-25T14:09:16.199Z,29.70
2023-08-25T14:11:42.958Z,30.67
2023-08-25T14:14:10.566Z,28.02
2023-08-25T14:16:37.406Z,28.38
2023-08-25T14:19:04.223Z,24.40
2023-08-25T14:21:30.989Z,23.48
2023-08-25T14:24:00.955Z,24.58
2023-08-25T14:26:28.398Z,27.00
2023-08-25T14:28:55.543Z,25.85
2023-08-25T14:31:22.557Z,25.63
2023-08-25T14:33:49.460Z,26.45
2023-08-25T14:36:16.210Z,26.90
2023-08-25T14:38:43.064Z,26.17
2023-08-25T14:41:09.865Z,24.33
2023-08-25T14:43:36.662Z,22.92
2023-08-25T14:46:04.838Z,22.48
2023-08-25T14:48:32.024Z,22.08
2023-08-25T14:51:01.131Z,22.90
2023-08-25T14:53:28.349Z,22.80
2023-08-25T14:55:55.645Z,22.02
2023-08-25T14:58:23.485Z,22.33
2023-08-25T15:00:55.431Z,20.98
2023-08-25T15:03:23.011Z,20.30
2023-08-25T15:05:57.155Z,19.75
2023-08-25T15:08:25.642Z,19.90
2023-08-25T15:10:52.493Z,19.02
2023-08-25T15:13:19.384Z,18.83
2023-08-25T15:15:46.295Z,16.95
2023-08-25T15:18:13.285Z,18.38
2023-08-25T15:20:41.044Z,17.58
2023-08-25T15:23:08.098Z,16.45
2023-08-25T15:25:35.026Z,16.73
2023-08-25T15:28:01.844Z,16.67
2023-08-25T15:30:28.610Z,16.40
2023-08-25T15:32:55.439Z,15.95
2023-08-25T15:35:26.933Z,15.95
2023-08-25T15:37:55.053Z,16.45
2023-08-25T15:40:23.905Z,15.77
2023-08-25T15:42:51.152Z,15.77
2023-08-25T15:45:18.181Z,16.27
2023-08-25T15:47:45.156Z,16.95
2023-08-25T15:50:12.037Z,16.65
2023-08-25T15:52:38.887Z,16.80
2023-08-25T15:55:06.135Z,15.90
2023-08-25T15:57:42.861Z,15.07
2023-08-25T16:00:11.144Z,13.57
2023-08-25T16:02:37.914Z,12.98
2023-08-25T16:05:05.646Z,13.82
2023-08-25T16:07:32.634Z,13.68
2023-08-25T16:09:59.391Z,13.25
2023-08-25T16:12:26.144Z,11.98
2023-08-25T16:14:52.938Z,11.95
2023-08-25T16:17:19.699Z,11.82
2023-08-25T16:19:46.417Z,12.23
2023-08-25T16:22:13.149Z,11.30
2023-08-25T16:24:39.940Z,12.35
2023-08-25T16:27:06.697Z,12.00
2023-08-25T16:29:33.553Z,11.75
2023-08-25T16:32:01.002Z,10.93
2023-08-25T16:34:28.673Z,11.60
2023-08-25T16:36:56.859Z,9.68
2023-08-25T16:39:23.687Z,10.43
2023-08-25T16:41:50.443Z,11.35
2023-08-25T16:44:17.321Z,10.75
2023-08-25T16:46:44.252Z,10.18
2023-08-25T16:49:11.102Z,11.00
2023-08-25T16:51:37.932Z,10.10
2023-08-25T16:54:05.651Z,9.77
2023-08-25T16:56:32.532Z,9.50
2023-08-25T16:59:00.065Z,9.35
2023-08-25T17:01:28.017Z,9.38
2023-08-25T17:03:55.238Z,8.70
2023-08-25T17:06:22.907Z,9.48
2023-08-25T17:08:52.052Z,7.93
2023-08-25T17:11:18.907Z,7.93
2023-08-25T17:13:45.756Z,7.53
2023-08-25T17:16:14.121Z,8.02
2023-08-25T17:18:41.509Z,7.90
2023-08-25T17:21:08.433Z,7.25
2023-08-25T17:23:35.563Z,7.13
2023-08-25T17:26:02.328Z,7.00
2023-08-25T17:28:29.197Z,6.93
2023-08-25T17:31:11.816Z,7.07
2023-08-25T17:33:39.054Z,7.13
2023-08-25T17:36:12.739Z,7.55
2023-08-25T17:38:39.539Z,7.45
2023-08-25T17:41:08.285Z,6.88
2023-08-25T17:43:35.793Z,6.13
2023-08-25T17:46:04.939Z,7.00
2023-08-25T17:48:34.511Z,6.97
2023-08-25T17:51:01.434Z,6.78
2023-08-25T17:53:28.571Z,7.50
2023-08-25T17:55:57.326Z,6.57
2023-08-25T17:58:24.480Z,7.00
2023-08-25T18:00:58.883Z,6.68
2023-08-25T18:03:25.998Z,6.60
2023-08-25T18:05:52.789Z,6.20
2023-08-25T18:08:19.577Z,6.80
2023-08-25T18:10:46.357Z,6.50
2023-08-25T18:13:13.197Z,6.85
2023-08-25T18:15:40.053Z,6.25
2023-08-25T18:18:06.981Z,6.20
2023-08-25T18:20:33.834Z,5.70
2023-08-25T18:23:00.630Z,5.97
2023-08-25T18:25:27.433Z,5.95
2023-08-25T18:27:54.294Z,5.30
2023-08-25T18:30:22.210Z,5.78
2023-08-25T18:32:49.107Z,6.30
2023-08-25T18:35:16.019Z,6.22
2023-08-25T18:37:43.635Z,6.35
2023-08-25T18:40:12.095Z,5.32
2023-08-25T18:42:39.091Z,5.25
2023-08-25T18:45:06.302Z,6.28
2023-08-25T18:47:33.138Z,5.93
2023-08-25T18:49:59.965Z,6.13
2023-08-25T18:52:26.742Z,6.03
2023-08-25T18:54:53.572Z,6.22
2023-08-25T18:57:25.342Z,6.38
2023-08-25T18:59:53.793Z,6.75
2023-08-25T19:02:21.661Z,6.78
2023-08-25T19:04:48.539Z,5.78
2023-08-25T19:07:15.417Z,6.43
2023-08-25T19:09:44.620Z,6.28
2023-08-25T19:12:12.316Z,5.85
2023-08-25T19:14:39.158Z,5.75
2023-08-25T19:17:05.947Z,6.32
2023-08-25T19:19:33.300Z,6.22
2023-08-25T19:22:00.227Z,5.97
2023-08-25T19:24:27.299Z,6.57
2023-08-25T19:26:56.076Z,6.32
2023-08-25T19:29:22.810Z,6.45
2023-08-25T19:31:50.151Z,7.15
2023-08-25T19:34:16.967Z,7.00
2023-08-25T19:36:43.750Z,7.20
2023-08-25T19:39:11.591Z,7.13
2023-08-25T19:41:38.747Z,6.53
2023-08-25T19:44:05.750Z,6.75
2023-08-25T19:46:32.557Z,6.45
2023-08-25T19:49:01.074Z,6.85
2023-08-25T19:51:27.995Z,6.53
2023-08-25T19:53:55.084Z,6.75
2023-08-25T19:56:21.936Z,6.20
2023-08-25T19:58:52.766Z,6.28
2023-08-25T20:01:20.207Z,5.68
2023-08-25T20:03:47.411Z,5.90
2023-08-25T20:06:14.465Z,6.03
2023-08-25T20:08:41.450Z,6.22
2023-08-25T20:11:08.987Z,5.65
2023-08-25T20:13:37.461Z,5.68
2023-08-25T20:16:04.724Z,5.93
2023-08-25T20:18:31.886Z,4.85
2023-08-25T20:20:59.249Z,6.10
2023-08-25T20:23:26.424Z,6.38
2023-08-25T20:25:54.631Z,5.50
2023-08-25T20:28:21.424Z,5.60
2023-08-25T20:30:48.873Z,5.55
2023-08-25T20:33:17.773Z,5.25
2023-08-25T20:35:45.509Z,5.97
2023-08-25T20:38:13.198Z,5.50
2023-08-25T20:40:45.268Z,4.80
2023-08-25T20:43:15.888Z,4.20
2023-08-25T20:45:47.847Z,4.70
2023-08-25T20:48:16.480Z,4.55
2023-08-25T20:50:49.200Z,4.20
2023-08-25T20:53:15.995Z,4.38
2023-08-25T20:55:42.885Z,4.28
2023-08-25T20:58:09.649Z,3.97
2023-08-25T21:00:36.428Z,3.70
2023-08-25T21:03:03.379Z,3.10
2023-08-25T21:05:30.197Z,2.83
2023-08-25T21:07:56.929Z,2.58
2023-08-25T21:10:23.785Z,3.08
2023-08-25T21:12:50.515Z,2.78
2023-08-25T21:15:17.436Z,2.53
2023-08-25T21:17:44.316Z,2.97
2023-08-25T21:20:11.633Z,2.33
2023-08-25T21:22:38.470Z,2.75
2023-08-25T21:25:05.479Z,2.90
2023-08-25T21:27:32.264Z,3.00
2023-08-25T21:29:59.074Z,2.90
2023-08-25T21:32:25.846Z,2.78
2023-08-25T21:34:52.754Z,2.60
2023-08-25T21:37:19.563Z,2.50
2023-08-25T21:39:46.532Z,2.67
2023-08-25T21:42:13.376Z,2.83
2023-08-25T21:44:40.138Z,2.40
2023-08-25T21:47:06.913Z,2.38
2023-08-25T21:49:33.735Z,2.30
2023-08-25T21:52:00.575Z,2.33
2023-08-25T21:54:27.337Z,2.60
2023-08-25T21:56:54.135Z,2.33
2023-08-25T21:59:20.899Z,2.40
2023-08-25T22:01:48.274Z,2.53
2023-08-25T22:04:15.085Z,2.90
2023-08-25T22:06:42.009Z,2.83
2023-08-25T22:09:08.919Z,3.03
2023-08-25T22:11:35.703Z,3.17
2023-08-25T22:14:03.663Z,3.20
2023-08-25T22:16:30.665Z,3.03
2023-08-25T22:18:57.532Z,3.13
2023-08-25T22:21:24.281Z,2.80
2023-08-25T22:23:51.066Z,3.20
2023-08-25T22:26:18.235Z,2.90
2023-08-25T22:28:45.013Z,2.78
2023-08-25T22:31:11.809Z,2.88
2023-08-25T22:36:08.525Z,2.90
2023-08-25T22:38:35.352Z,2.45
2023-08-25T22:41:02.126Z,2.80
2023-08-25T22:43:31.457Z,2.30
2023-08-25T22:46:03.435Z,2.37
2023-08-25T22:48:30.233Z,2.67
2023-08-25T22:50:57.067Z,2.42
2023-08-25T22:53:27.951Z,2.75
2023-08-25T22:55:55.634Z,2.45
2023-08-25T22:58:23.683Z,2.60
2023-08-25T23:00:50.505Z,2.75
2023-08-25T23:03:17.389Z,2.30
2023-08-25T23:05:44.346Z,2.92
2023-08-25T23:08:11.245Z,2.30
2023-08-25T23:10:39.315Z,2.47
2023-08-25T23:13:06.638Z,2.50
2023-08-25T23:15:33.463Z,2.70
2023-08-25T23:18:01.343Z,2.20
2023-08-25T23:20:28.881Z,2.70
2023-08-25T23:22:55.733Z,2.67
2023-08-25T23:25:22.728Z,2.50
2023-08-25T23:27:49.777Z,2.20
2023-08-25T23:30:16.585Z,2.25
2023-08-25T23:32:43.402Z,2.40
2023-08-25T23:35:10.272Z,2.45
2023-08-25T23:37:37.096Z,2.22
2023-08-25T23:40:05.016Z,2.50
2023-08-25T23:42:31.842Z,2.35
2023-08-25T23:44:59.044Z,2.42
2023-08-25T23:47:25.900Z,2.60
2023-08-25T23:49:52.654Z,2.45
2023-08-25T23:52:19.410Z,2.55
2023-08-25T23:54:46.348Z,2.33
2023-08-25T23:57:13.161Z,2.83
2023-08-25T23:59:40.031Z,2.72
